sensor_id;sensor_type;location;lat;lon;timestamp;temperature;humidity
3566;DHT22;1797;51.844;7.684;2022-11-15T00:00:50;9.20;1.00
3566;DHT22;1797;51.844;7.684;2022-11-15T00:03:17;9.20;1.00
3566;DHT22;1797;51.844;7.684;2022-11-15T00:05:44;9.30;1.00
3566;DHT22;1797;51.844;7.684;2022-11-15T00:08:10;9.20;1.00
3566;DHT22;1797;51.844;7.684;2022-11-15T00:10:37;9.20;1.00
3566;DHT22;1797;51.844;7.684;2022-11-15T00:13:12;9.20;1.00
3566;DHT22;1797;51.844;7.684;2022-11-15T00:15:40;9.20;1.00
3566;DHT22;1797;51.844;7.684;2022-11-15T00:18:06;9.10;1.00
3566;DHT22;1797;51.844;7.684;2022-11-15T00:20:36;9.10;1.00
3566;DHT22;1797;51.844;7.684;2022-11-15T00:23:05;9.10;1.00
3566;DHT22;1797;51.844;7.684;2022-11-15T00:25:32;9.10;1.00
3566;DHT22;1797;51.844;7.684;2022-11-15T00:27:58;9.10;1.00
3566;DHT22;1797;51.844;7.684;2022-11-15T00:30:25;9.20;1.00
3566;DHT22;1797;51.844;7.684;2022-11-15T00:32:50;9.20;1.00
3566;DHT22;1797;51.844;7.684;2022-11-15T00:35:17;9.20;1.00
3566;DHT22;1797;51.844;7.684;2022-11-15T00:37:42;9.20;1.00
3566;DHT22;1797;51.844;7.684;2022-11-15T00:40:09;9.20;1.00
3566;DHT22;1797;51.844;7.684;2022-11-15T00:42:34;9.20;1.00
3566;DHT22;1797;51.844;7.684;2022-11-15T00:45:00;9.20;1.00
3566;DHT22;1797;51.844;7.684;2022-11-15T00:47:25;9.20;1.00
3566;DHT22;1797;51.844;7.684;2022-11-15T00:49:51;9.30;1.00
3566;DHT22;1797;51.844;7.684;2022-11-15T00:52:16;9.20;1.00
3566;DHT22;1797;51.844;7.684;2022-11-15T00:54:42;9.20;1.00
3566;DHT22;1797;51.844;7.684;2022-11-15T00:57:08;9.20;1.00
3566;DHT22;1797;51.844;7.684;2022-11-15T00:59:34;9.20;1.00
3566;DHT22;1797;51.844;7.684;2022-11-15T01:01:59;9.20;1.00
3566;DHT22;1797;51.844;7.684;2022-11-15T01:04:25;9.20;1.00
3566;DHT22;1797;51.844;7.684;2022-11-15T01:06:50;9.20;1.00
3566;DHT22;1797;51.844;7.684;2022-11-15T01:09:16;9.20;1.00
3566;DHT22;1797;51.844;7.684;2022-11-15T01:11:41;9.20;1.00
3566;DHT22;1797;51.844;7.684;2022-11-15T01:14:07;9.30;2.60
3566;DHT22;1797;51.844;7.684;2022-11-15T01:16:33;9.30;16.90
3566;DHT22;1797;51.844;7.684;2022-11-15T01:18:59;9.30;17.30
3566;DHT22;1797;51.844;7.684;2022-11-15T01:21:25;9.40;23.70
3566;DHT22;1797;51.844;7.684;2022-11-15T01:23:54;9.40;72.60
3566;DHT22;1797;51.844;7.684;2022-11-15T01:26:20;9.40;99.30
3566;DHT22;1797;51.844;7.684;2022-11-15T01:28:46;9.40;99.90
3566;DHT22;1797;51.844;7.684;2022-11-15T01:31:16;9.40;99.90
3566;DHT22;1797;51.844;7.684;2022-11-15T01:33:42;9.50;99.90
3566;DHT22;1797;51.844;7.684;2022-11-15T01:36:11;9.50;99.90
3566;DHT22;1797;51.844;7.684;2022-11-15T01:38:37;9.50;99.90
3566;DHT22;1797;51.844;7.684;2022-11-15T01:41:03;9.50;99.90
3566;DHT22;1797;51.844;7.684;2022-11-15T01:43:30;9.50;99.90
3566;DHT22;1797;51.844;7.684;2022-11-15T01:48:52;9.50;1.00
3566;DHT22;1797;51.844;7.684;2022-11-15T01:51:20;9.50;1.00
3566;DHT22;1797;51.844;7.684;2022-11-15T01:53:49;9.60;1.00
3566;DHT22;1797;51.844;7.684;2022-11-15T01:56:21;9.60;1.00
3566;DHT22;1797;51.844;7.684;2022-11-15T01:58:48;9.60;1.00
3566;DHT22;1797;51.844;7.684;2022-11-15T02:01:14;9.60;1.00
3566;DHT22;1797;51.844;7.684;2022-11-15T02:03:53;9.60;1.00
3566;DHT22;1797;51.844;7.684;2022-11-15T02:06:21;9.70;1.00
3566;DHT22;1797;51.844;7.684;2022-11-15T02:08:47;9.60;1.00
3566;DHT22;1797;51.844;7.684;2022-11-15T02:11:13;9.60;1.00
3566;DHT22;1797;51.844;7.684;2022-11-15T02:13:39;9.60;1.00
3566;DHT22;1797;51.844;7.684;2022-11-15T02:18:37;9.70;24.60
3566;DHT22;1797;51.844;7.684;2022-11-15T02:21:33;9.70;66.70
3566;DHT22;1797;51.844;7.684;2022-11-15T02:24:20;9.70;99.90
3566;DHT22;1797;51.844;7.684;2022-11-15T02:32:31;9.80;99.90
3566;DHT22;1797;51.844;7.684;2022-11-15T02:41:13;9.80;1.00
3566;DHT22;1797;51.844;7.684;2022-11-15T02:46:35;9.90;1.00
3566;DHT22;1797;51.844;7.684;2022-11-15T02:49:21;9.90;1.00
3566;DHT22;1797;51.844;7.684;2022-11-15T02:51:49;9.90;1.00
3566;DHT22;1797;51.844;7.684;2022-11-15T02:54:29;10.00;1.00
3566;DHT22;1797;51.844;7.684;2022-11-15T02:56:58;10.00;1.00
3566;DHT22;1797;51.844;7.684;2022-11-15T02:59:38;10.00;1.00
3566;DHT22;1797;51.844;7.684;2022-11-15T03:07:36;10.00;1.00
3566;DHT22;1797;51.844;7.684;2022-11-15T03:10:12;10.10;98.20
3566;DHT22;1797;51.844;7.684;2022-11-15T03:12:55;10.10;99.90
3566;DHT22;1797;51.844;7.684;2022-11-15T03:15:26;10.10;1.00
3566;DHT22;1797;51.844;7.684;2022-11-15T03:18:02;10.20;1.00
3566;DHT22;1797;51.844;7.684;2022-11-15T03:20:30;10.20;1.00
3566;DHT22;1797;51.844;7.684;2022-11-15T03:23:08;10.20;1.00
3566;DHT22;1797;51.844;7.684;2022-11-15T03:25:39;10.20;99.90
3566;DHT22;1797;51.844;7.684;2022-11-15T03:28:07;10.40;13.20
3566;DHT22;1797;51.844;7.684;2022-11-15T03:30:36;10.50;1.00
3566;DHT22;1797;51.844;7.684;2022-11-15T03:33:04;10.60;1.00
3566;DHT22;1797;51.844;7.684;2022-11-15T03:35:40;10.60;1.00
3566;DHT22;1797;51.844;7.684;2022-11-15T03:38:15;10.70;1.00
3566;DHT22;1797;51.844;7.684;2022-11-15T03:40:54;10.80;1.00
3566;DHT22;1797;51.844;7.684;2022-11-15T03:44:36;10.90;1.00
3566;DHT22;1797;51.844;7.684;2022-11-15T03:46:36;11.10;1.00
3566;DHT22;1797;51.844;7.684;2022-11-15T03:49:11;11.20;99.90
3566;DHT22;1797;51.844;7.684;2022-11-15T03:51:39;11.30;1.00
3566;DHT22;1797;51.844;7.684;2022-11-15T03:54:05;11.30;1.00
3566;DHT22;1797;51.844;7.684;2022-11-15T03:56:31;11.40;1.00
3566;DHT22;1797;51.844;7.684;2022-11-15T03:58:56;11.50;99.90
3566;DHT22;1797;51.844;7.684;2022-11-15T04:01:22;11.50;1.00
3566;DHT22;1797;51.844;7.684;2022-11-15T04:03:48;11.50;1.00
3566;DHT22;1797;51.844;7.684;2022-11-15T04:06:13;11.50;99.90
3566;DHT22;1797;51.844;7.684;2022-11-15T04:08:39;11.60;99.90
3566;DHT22;1797;51.844;7.684;2022-11-15T04:11:04;11.60;96.10
3566;DHT22;1797;51.844;7.684;2022-11-15T04:13:30;11.60;1.50
3566;DHT22;1797;51.844;7.684;2022-11-15T04:15:55;11.60;1.00
3566;DHT22;1797;51.844;7.684;2022-11-15T04:18:21;11.60;1.00
3566;DHT22;1797;51.844;7.684;2022-11-15T04:20:47;11.60;1.00
3566;DHT22;1797;51.844;7.684;2022-11-15T04:23:31;11.70;1.00
3566;DHT22;1797;51.844;7.684;2022-11-15T04:26:32;11.60;1.00
3566;DHT22;1797;51.844;7.684;2022-11-15T04:28:57;11.60;1.00
3566;DHT22;1797;51.844;7.684;2022-11-15T04:31:42;11.60;1.00
3566;DHT22;1797;51.844;7.684;2022-11-15T04:34:07;11.70;1.00
3566;DHT22;1797;51.844;7.684;2022-11-15T04:36:33;11.70;1.00
3566;DHT22;1797;51.844;7.684;2022-11-15T04:39:17;11.70;1.00
3566;DHT22;1797;51.844;7.684;2022-11-15T04:41:42;11.70;1.00
3566;DHT22;1797;51.844;7.684;2022-11-15T04:44:08;11.70;1.00
3566;DHT22;1797;51.844;7.684;2022-11-15T04:46:34;11.70;1.00
3566;DHT22;1797;51.844;7.684;2022-11-15T04:49:00;11.70;1.00
3566;DHT22;1797;51.844;7.684;2022-11-15T04:51:26;11.70;1.00
3566;DHT22;1797;51.844;7.684;2022-11-15T04:53:52;11.70;1.00
3566;DHT22;1797;51.844;7.684;2022-11-15T04:56:17;11.70;1.00
3566;DHT22;1797;51.844;7.684;2022-11-15T04:58:43;11.70;1.00
3566;DHT22;1797;51.844;7.684;2022-11-15T05:01:10;11.60;1.00
3566;DHT22;1797;51.844;7.684;2022-11-15T05:03:36;11.60;1.00
3566;DHT22;1797;51.844;7.684;2022-11-15T05:06:20;11.60;32.60
3566;DHT22;1797;51.844;7.684;2022-11-15T05:08:46;11.50;99.90
3566;DHT22;1797;51.844;7.684;2022-11-15T05:11:11;11.50;99.90
3566;DHT22;1797;51.844;7.684;2022-11-15T05:13:37;11.50;99.90
3566;DHT22;1797;51.844;7.684;2022-11-15T05:16:03;11.50;99.90
3566;DHT22;1797;51.844;7.684;2022-11-15T05:18:28;11.50;99.90
3566;DHT22;1797;51.844;7.684;2022-11-15T05:20:54;11.50;99.90
3566;DHT22;1797;51.844;7.684;2022-11-15T05:23:19;11.40;1.00
3566;DHT22;1797;51.844;7.684;2022-11-15T05:25:45;11.40;1.00
3566;DHT22;1797;51.844;7.684;2022-11-15T05:28:10;11.40;1.00
3566;DHT22;1797;51.844;7.684;2022-11-15T05:30:36;11.40;1.00
3566;DHT22;1797;51.844;7.684;2022-11-15T05:33:02;11.30;1.00
3566;DHT22;1797;51.844;7.684;2022-11-15T05:35:37;11.30;99.90
3566;DHT22;1797;51.844;7.684;2022-11-15T05:38:03;11.30;1.00
3566;DHT22;1797;51.844;7.684;2022-11-15T05:40:30;11.30;1.00
3566;DHT22;1797;51.844;7.684;2022-11-15T05:42:56;11.30;99.90
3566;DHT22;1797;51.844;7.684;2022-11-15T05:45:22;11.30;99.90
3566;DHT22;1797;51.844;7.684;2022-11-15T05:47:49;11.30;99.90
3566;DHT22;1797;51.844;7.684;2022-11-15T05:50:17;11.30;99.90
3566;DHT22;1797;51.844;7.684;2022-11-15T05:52:44;11.30;1.00
3566;DHT22;1797;51.844;7.684;2022-11-15T05:55:11;11.20;1.00
3566;DHT22;1797;51.844;7.684;2022-11-15T05:57:37;11.20;1.00
3566;DHT22;1797;51.844;7.684;2022-11-15T06:00:03;11.20;1.00
3566;DHT22;1797;51.844;7.684;2022-11-15T06:02:29;11.20;1.00
3566;DHT22;1797;51.844;7.684;2022-11-15T06:04:55;11.10;99.90
3566;DHT22;1797;51.844;7.684;2022-11-15T06:07:20;11.10;1.00
3566;DHT22;1797;51.844;7.684;2022-11-15T06:09:46;11.10;1.00
3566;DHT22;1797;51.844;7.684;2022-11-15T06:12:11;11.10;66.90
3566;DHT22;1797;51.844;7.684;2022-11-15T06:14:37;11.10;1.00
3566;DHT22;1797;51.844;7.684;2022-11-15T06:17:02;11.10;1.00
3566;DHT22;1797;51.844;7.684;2022-11-15T06:19:28;11.10;17.50
3566;DHT22;1797;51.844;7.684;2022-11-15T06:22:00;11.10;99.90
3566;DHT22;1797;51.844;7.684;2022-11-15T06:24:26;11.10;99.90
3566;DHT22;1797;51.844;7.684;2022-11-15T06:26:51;11.50;99.90
3566;DHT22;1797;51.844;7.684;2022-11-15T06:29:17;11.20;99.90
3566;DHT22;1797;51.844;7.684;2022-11-15T06:31:42;11.20;99.90
3566;DHT22;1797;51.844;7.684;2022-11-15T06:34:08;11.20;99.90
3566;DHT22;1797;51.844;7.684;2022-11-15T06:36:35;11.20;99.90
3566;DHT22;1797;51.844;7.684;2022-11-15T06:39:02;11.30;99.90
3566;DHT22;1797;51.844;7.684;2022-11-15T06:41:27;11.30;36.50
3566;DHT22;1797;51.844;7.684;2022-11-15T06:43:53;11.30;99.90
3566;DHT22;1797;51.844;7.684;2022-11-15T06:46:19;11.30;99.90
3566;DHT22;1797;51.844;7.684;2022-11-15T06:48:44;11.30;99.90
3566;DHT22;1797;51.844;7.684;2022-11-15T06:51:10;11.30;99.90
3566;DHT22;1797;51.844;7.684;2022-11-15T06:53:36;11.40;99.90
3566;DHT22;1797;51.844;7.684;2022-11-15T06:56:03;11.40;99.90
3566;DHT22;1797;51.844;7.684;2022-11-15T06:58:29;11.50;99.90
3566;DHT22;1797;51.844;7.684;2022-11-15T07:01:04;11.60;1.00
3566;DHT22;1797;51.844;7.684;2022-11-15T07:03:30;11.70;1.00
3566;DHT22;1797;51.844;7.684;2022-11-15T07:05:57;11.70;1.00
3566;DHT22;1797;51.844;7.684;2022-11-15T07:08:23;11.80;1.00
3566;DHT22;1797;51.844;7.684;2022-11-15T07:10:49;11.90;99.90
3566;DHT22;1797;51.844;7.684;2022-11-15T07:13:15;11.90;1.00
3566;DHT22;1797;51.844;7.684;2022-11-15T07:15:41;12.00;99.90
3566;DHT22;1797;51.844;7.684;2022-11-15T07:18:06;12.10;1.00
3566;DHT22;1797;51.844;7.684;2022-11-15T07:20:32;12.10;99.90
3566;DHT22;1797;51.844;7.684;2022-11-15T07:23:04;12.20;1.00
3566;DHT22;1797;51.844;7.684;2022-11-15T07:25:31;12.20;1.00
3566;DHT22;1797;51.844;7.684;2022-11-15T07:28:00;12.30;1.00
3566;DHT22;1797;51.844;7.684;2022-11-15T07:30:26;12.30;1.00
3566;DHT22;1797;51.844;7.684;2022-11-15T07:32:59;12.30;1.00
3566;DHT22;1797;51.844;7.684;2022-11-15T07:35:26;12.30;99.90
3566;DHT22;1797;51.844;7.684;2022-11-15T07:38:00;12.30;99.90
3566;DHT22;1797;51.844;7.684;2022-11-15T07:40:28;12.40;99.90
3566;DHT22;1797;51.844;7.684;2022-11-15T07:43:01;12.40;52.70
3566;DHT22;1797;51.844;7.684;2022-11-15T07:45:27;12.40;76.80
3566;DHT22;1797;51.844;7.684;2022-11-15T07:47:53;12.40;1.00
3566;DHT22;1797;51.844;7.684;2022-11-15T07:50:19;12.50;1.00
3566;DHT22;1797;51.844;7.684;2022-11-15T07:52:45;12.50;1.00
3566;DHT22;1797;51.844;7.684;2022-11-15T07:55:11;12.50;99.90
3566;DHT22;1797;51.844;7.684;2022-11-15T07:57:37;12.50;99.90
3566;DHT22;1797;51.844;7.684;2022-11-15T08:00:04;12.50;99.90
3566;DHT22;1797;51.844;7.684;2022-11-15T08:02:30;12.50;99.90
3566;DHT22;1797;51.844;7.684;2022-11-15T08:04:56;12.50;99.90
3566;DHT22;1797;51.844;7.684;2022-11-15T08:07:22;12.60;99.90
3566;DHT22;1797;51.844;7.684;2022-11-15T08:09:48;12.60;24.40
3566;DHT22;1797;51.844;7.684;2022-11-15T08:12:14;12.60;79.70
3566;DHT22;1797;51.844;7.684;2022-11-15T08:14:40;12.60;1.00
3566;DHT22;1797;51.844;7.684;2022-11-15T08:17:05;12.60;1.00
3566;DHT22;1797;51.844;7.684;2022-11-15T08:19:31;12.60;1.00
3566;DHT22;1797;51.844;7.684;2022-11-15T08:21:56;12.70;99.90
3566;DHT22;1797;51.844;7.684;2022-11-15T08:24:22;12.80;99.90
3566;DHT22;1797;51.844;7.684;2022-11-15T08:26:48;12.80;1.00
3566;DHT22;1797;51.844;7.684;2022-11-15T08:29:13;12.80;1.00
3566;DHT22;1797;51.844;7.684;2022-11-15T08:31:39;12.80;1.00
3566;DHT22;1797;51.844;7.684;2022-11-15T08:34:05;12.80;1.00
3566;DHT22;1797;51.844;7.684;2022-11-15T08:36:31;12.80;1.00
3566;DHT22;1797;51.844;7.684;2022-11-15T08:38:57;12.90;1.00
3566;DHT22;1797;51.844;7.684;2022-11-15T08:41:29;12.90;1.00
3566;DHT22;1797;51.844;7.684;2022-11-15T08:43:55;12.90;99.90
3566;DHT22;1797;51.844;7.684;2022-11-15T08:46:21;13.00;99.90
3566;DHT22;1797;51.844;7.684;2022-11-15T08:48:47;13.00;99.90
3566;DHT22;1797;51.844;7.684;2022-11-15T08:51:12;13.00;99.90
3566;DHT22;1797;51.844;7.684;2022-11-15T08:53:38;13.00;99.90
3566;DHT22;1797;51.844;7.684;2022-11-15T08:56:07;13.10;99.90
3566;DHT22;1797;51.844;7.684;2022-11-15T08:58:34;13.00;99.90
3566;DHT22;1797;51.844;7.684;2022-11-15T09:00:59;13.10;99.90
3566;DHT22;1797;51.844;7.684;2022-11-15T09:03:25;13.10;99.90
3566;DHT22;1797;51.844;7.684;2022-11-15T09:05:58;13.10;93.80
3566;DHT22;1797;51.844;7.684;2022-11-15T09:08:25;13.20;71.20
3566;DHT22;1797;51.844;7.684;2022-11-15T09:10:54;13.20;28.40
3566;DHT22;1797;51.844;7.684;2022-11-15T09:13:19;13.30;1.00
3566;DHT22;1797;51.844;7.684;2022-11-15T09:15:45;13.30;1.00
3566;DHT22;1797;51.844;7.684;2022-11-15T09:18:10;13.30;1.00
3566;DHT22;1797;51.844;7.684;2022-11-15T09:20:36;13.40;1.00
3566;DHT22;1797;51.844;7.684;2022-11-15T09:23:03;13.40;1.00
3566;DHT22;1797;51.844;7.684;2022-11-15T09:25:29;13.50;1.00
3566;DHT22;1797;51.844;7.684;2022-11-15T09:27:55;13.50;1.00
3566;DHT22;1797;51.844;7.684;2022-11-15T09:30:22;13.50;1.00
3566;DHT22;1797;51.844;7.684;2022-11-15T09:32:48;13.60;1.00
3566;DHT22;1797;51.844;7.684;2022-11-15T09:35:13;13.60;1.00
3566;DHT22;1797;51.844;7.684;2022-11-15T09:37:39;13.60;1.00
3566;DHT22;1797;51.844;7.684;2022-11-15T09:40:05;13.50;1.00
3566;DHT22;1797;51.844;7.684;2022-11-15T09:42:58;13.50;1.00
3566;DHT22;1797;51.844;7.684;2022-11-15T09:45:37;13.60;1.00
3566;DHT22;1797;51.844;7.684;2022-11-15T09:50:49;13.60;1.00
3566;DHT22;1797;51.844;7.684;2022-11-15T09:56:00;13.60;99.90
3566;DHT22;1797;51.844;7.684;2022-11-15T09:58:36;13.70;99.90
3566;DHT22;1797;51.844;7.684;2022-11-15T10:01:08;13.70;99.90
3566;DHT22;1797;51.844;7.684;2022-11-15T10:03:38;13.80;99.90
3566;DHT22;1797;51.844;7.684;2022-11-15T10:06:14;13.80;99.90
3566;DHT22;1797;51.844;7.684;2022-11-15T10:11:26;14.00;99.90
3566;DHT22;1797;51.844;7.684;2022-11-15T10:14:01;14.10;99.90
3566;DHT22;1797;51.844;7.684;2022-11-15T10:22:26;14.10;99.90
3566;DHT22;1797;51.844;7.684;2022-11-15T10:27:43;14.20;43.00
3566;DHT22;1797;51.844;7.684;2022-11-15T10:30:14;14.30;46.40
3566;DHT22;1797;51.844;7.684;2022-11-15T10:32:43;14.30;1.00
3566;DHT22;1797;51.844;7.684;2022-11-15T10:35:27;14.40;26.00
3566;DHT22;1797;51.844;7.684;2022-11-15T10:38:09;14.60;1.00
3566;DHT22;1797;51.844;7.684;2022-11-15T10:40:36;14.60;1.00
3566;DHT22;1797;51.844;7.684;2022-11-15T10:45:37;14.80;1.00
3566;DHT22;1797;51.844;7.684;2022-11-15T10:50:40;14.80;1.00
3566;DHT22;1797;51.844;7.684;2022-11-15T10:53:27;14.90;1.00
3566;DHT22;1797;51.844;7.684;2022-11-15T10:55:57;14.80;1.00
3566;DHT22;1797;51.844;7.684;2022-11-15T11:00:48;15.20;1.00
3566;DHT22;1797;51.844;7.684;2022-11-15T11:03:28;15.30;1.00
3566;DHT22;1797;51.844;7.684;2022-11-15T11:06:13;15.30;1.00
3566;DHT22;1797;51.844;7.684;2022-11-15T11:08:40;15.40;1.00
3566;DHT22;1797;51.844;7.684;2022-11-15T11:11:07;15.40;1.00
3566;DHT22;1797;51.844;7.684;2022-11-15T11:13:35;15.30;1.00
3566;DHT22;1797;51.844;7.684;2022-11-15T11:22:03;15.20;1.00
3566;DHT22;1797;51.844;7.684;2022-11-15T11:30:10;15.60;1.00
3566;DHT22;1797;51.844;7.684;2022-11-15T11:35:30;15.50;1.00
3566;DHT22;1797;51.844;7.684;2022-11-15T11:38:22;15.30;1.00
3566;DHT22;1797;51.844;7.684;2022-11-15T11:46:59;15.40;1.00
3566;DHT22;1797;51.844;7.684;2022-11-15T11:54:50;15.60;1.00
3566;DHT22;1797;51.844;7.684;2022-11-15T12:00:33;15.80;1.00
3566;DHT22;1797;51.844;7.684;2022-11-15T12:05:37;15.80;1.00
3566;DHT22;1797;51.844;7.684;2022-11-15T12:10:45;15.70;1.00
3566;DHT22;1797;51.844;7.684;2022-11-15T12:13:18;15.70;1.00
3566;DHT22;1797;51.844;7.684;2022-11-15T12:16:02;15.80;1.00
3566;DHT22;1797;51.844;7.684;2022-11-15T12:18:29;16.00;1.00
3566;DHT22;1797;51.844;7.684;2022-11-15T12:20:56;16.10;1.00
3566;DHT22;1797;51.844;7.684;2022-11-15T12:23:32;15.90;1.00
3566;DHT22;1797;51.844;7.684;2022-11-15T12:26:10;15.80;1.00
3566;DHT22;1797;51.844;7.684;2022-11-15T12:28:51;15.80;1.00
3566;DHT22;1797;51.844;7.684;2022-11-15T12:31:35;15.90;1.00
3566;DHT22;1797;51.844;7.684;2022-11-15T12:36:45;15.80;1.00
3566;DHT22;1797;51.844;7.684;2022-11-15T12:39:12;15.80;1.00
3566;DHT22;1797;51.844;7.684;2022-11-15T12:42:34;15.80;1.00
3566;DHT22;1797;51.844;7.684;2022-11-15T12:52:05;15.40;1.00
3566;DHT22;1797;51.844;7.684;2022-11-15T12:59:53;15.30;1.00
3566;DHT22;1797;51.844;7.684;2022-11-15T13:02:42;15.20;1.00
3566;DHT22;1797;51.844;7.684;2022-11-15T13:17:54;14.90;1.00
3566;DHT22;1797;51.844;7.684;2022-11-15T13:20:28;14.90;1.00
3566;DHT22;1797;51.844;7.684;2022-11-15T13:28:43;14.80;1.00
3566;DHT22;1797;51.844;7.684;2022-11-15T13:33:51;14.70;1.00
3566;DHT22;1797;51.844;7.684;2022-11-15T13:36:23;14.70;1.00
3566;DHT22;1797;51.844;7.684;2022-11-15T13:39:00;14.70;1.00
3566;DHT22;1797;51.844;7.684;2022-11-15T13:41:32;14.70;1.00
3566;DHT22;1797;51.844;7.684;2022-11-15T13:43:59;14.70;1.00
3566;DHT22;1797;51.844;7.684;2022-11-15T13:46:30;14.70;1.00
3566;DHT22;1797;51.844;7.684;2022-11-15T13:51:38;14.60;1.00
3566;DHT22;1797;51.844;7.684;2022-11-15T13:56:45;14.60;1.00
3566;DHT22;1797;51.844;7.684;2022-11-15T14:02:21;14.60;1.00
3566;DHT22;1797;51.844;7.684;2022-11-15T14:04:57;14.50;1.00
3566;DHT22;1797;51.844;7.684;2022-11-15T14:07:25;14.50;1.00
3566;DHT22;1797;51.844;7.684;2022-11-15T14:09:53;14.40;1.00
3566;DHT22;1797;51.844;7.684;2022-11-15T14:12:33;14.40;1.00
3566;DHT22;1797;51.844;7.684;2022-11-15T14:17:43;14.30;1.00
3566;DHT22;1797;51.844;7.684;2022-11-15T14:20:36;14.30;1.00
3566;DHT22;1797;51.844;7.684;2022-11-15T14:25:58;14.20;1.00
3566;DHT22;1797;51.844;7.684;2022-11-15T14:30:51;14.10;1.00
3566;DHT22;1797;51.844;7.684;2022-11-15T14:33:30;14.10;1.00
3566;DHT22;1797;51.844;7.684;2022-11-15T14:36:01;14.10;1.00
3566;DHT22;1797;51.844;7.684;2022-11-15T14:38:27;14.00;1.00
3566;DHT22;1797;51.844;7.684;2022-11-15T14:40:54;14.00;1.00
3566;DHT22;1797;51.844;7.684;2022-11-15T14:43:21;13.90;1.00
3566;DHT22;1797;51.844;7.684;2022-11-15T14:45:47;13.80;1.00
3566;DHT22;1797;51.844;7.684;2022-11-15T14:48:12;13.70;1.00
3566;DHT22;1797;51.844;7.684;2022-11-15T14:50:38;13.70;1.00
3566;DHT22;1797;51.844;7.684;2022-11-15T14:53:05;13.60;1.00
3566;DHT22;1797;51.844;7.684;2022-11-15T14:55:35;13.60;1.00
3566;DHT22;1797;51.844;7.684;2022-11-15T14:58:05;13.50;1.00
3566;DHT22;1797;51.844;7.684;2022-11-15T15:00:39;13.50;1.00
3566;DHT22;1797;51.844;7.684;2022-11-15T15:03:05;13.40;1.00
3566;DHT22;1797;51.844;7.684;2022-11-15T15:05:36;13.40;1.00
3566;DHT22;1797;51.844;7.684;2022-11-15T15:08:03;13.30;1.00
3566;DHT22;1797;51.844;7.684;2022-11-15T15:10:32;13.20;1.00
3566;DHT22;1797;51.844;7.684;2022-11-15T15:12:58;13.20;1.00
3566;DHT22;1797;51.844;7.684;2022-11-15T15:15:27;13.20;1.00
3566;DHT22;1797;51.844;7.684;2022-11-15T15:17:54;13.10;1.00
3566;DHT22;1797;51.844;7.684;2022-11-15T15:20:20;13.10;1.00
3566;DHT22;1797;51.844;7.684;2022-11-15T15:22:46;13.10;1.00
3566;DHT22;1797;51.844;7.684;2022-11-15T15:25:30;13.10;1.00
3566;DHT22;1797;51.844;7.684;2022-11-15T15:27:57;13.00;1.00
3566;DHT22;1797;51.844;7.684;2022-11-15T15:30:23;13.00;1.00
3566;DHT22;1797;51.844;7.684;2022-11-15T15:32:49;12.90;1.00
3566;DHT22;1797;51.844;7.684;2022-11-15T15:35:16;12.90;1.00
3566;DHT22;1797;51.844;7.684;2022-11-15T15:37:43;12.90;1.00
3566;DHT22;1797;51.844;7.684;2022-11-15T15:40:17;12.80;1.00
3566;DHT22;1797;51.844;7.684;2022-11-15T15:42:44;12.70;1.00
3566;DHT22;1797;51.844;7.684;2022-11-15T15:45:10;12.70;1.00
3566;DHT22;1797;51.844;7.684;2022-11-15T15:47:37;12.60;1.00
3566;DHT22;1797;51.844;7.684;2022-11-15T15:52:38;12.50;1.00
3566;DHT22;1797;51.844;7.684;2022-11-15T15:55:04;12.40;1.00
3566;DHT22;1797;51.844;7.684;2022-11-15T15:57:29;12.30;1.00
3566;DHT22;1797;51.844;7.684;2022-11-15T15:59:55;12.20;1.00
3566;DHT22;1797;51.844;7.684;2022-11-15T16:02:20;12.30;1.00
3566;DHT22;1797;51.844;7.684;2022-11-15T16:04:46;12.20;1.00
3566;DHT22;1797;51.844;7.684;2022-11-15T16:07:21;12.20;1.00
3566;DHT22;1797;51.844;7.684;2022-11-15T16:09:49;12.10;1.00
3566;DHT22;1797;51.844;7.684;2022-11-15T16:12:33;12.10;1.00
3566;DHT22;1797;51.844;7.684;2022-11-15T16:14:59;12.00;1.00
3566;DHT22;1797;51.844;7.684;2022-11-15T16:17:37;12.00;1.00
3566;DHT22;1797;51.844;7.684;2022-11-15T16:20:04;11.90;1.00
3566;DHT22;1797;51.844;7.684;2022-11-15T16:22:29;11.90;1.00
3566;DHT22;1797;51.844;7.684;2022-11-15T16:24:55;11.90;1.00
3566;DHT22;1797;51.844;7.684;2022-11-15T16:27:22;11.80;1.00
3566;DHT22;1797;51.844;7.684;2022-11-15T16:29:47;11.70;1.00
3566;DHT22;1797;51.844;7.684;2022-11-15T16:32:13;11.70;1.00
3566;DHT22;1797;51.844;7.684;2022-11-15T16:34:39;11.60;1.00
3566;DHT22;1797;51.844;7.684;2022-11-15T16:37:08;11.60;1.00
3566;DHT22;1797;51.844;7.684;2022-11-15T16:39:40;11.50;1.00
3566;DHT22;1797;51.844;7.684;2022-11-15T16:42:06;11.50;1.00
3566;DHT22;1797;51.844;7.684;2022-11-15T16:44:31;11.50;1.00
3566;DHT22;1797;51.844;7.684;2022-11-15T16:46:57;11.50;1.00
3566;DHT22;1797;51.844;7.684;2022-11-15T16:49:22;11.40;1.00
3566;DHT22;1797;51.844;7.684;2022-11-15T16:51:49;11.50;1.00
3566;DHT22;1797;51.844;7.684;2022-11-15T16:54:15;11.50;1.00
3566;DHT22;1797;51.844;7.684;2022-11-15T16:56:41;11.30;1.00
3566;DHT22;1797;51.844;7.684;2022-11-15T16:59:10;10.80;1.00
3566;DHT22;1797;51.844;7.684;2022-11-15T17:01:38;11.50;1.00
3566;DHT22;1797;51.844;7.684;2022-11-15T17:04:11;11.50;1.00
3566;DHT22;1797;51.844;7.684;2022-11-15T17:06:41;11.50;1.00
3566;DHT22;1797;51.844;7.684;2022-11-15T17:09:12;11.50;1.00
3566;DHT22;1797;51.844;7.684;2022-11-15T17:11:40;11.60;1.00
3566;DHT22;1797;51.844;7.684;2022-11-15T17:14:06;11.80;1.00
3566;DHT22;1797;51.844;7.684;2022-11-15T17:16:31;11.60;1.00
3566;DHT22;1797;51.844;7.684;2022-11-15T17:18:58;11.70;1.00
3566;DHT22;1797;51.844;7.684;2022-11-15T17:21:24;11.80;1.00
3566;DHT22;1797;51.844;7.684;2022-11-15T17:23:53;11.80;1.00
3566;DHT22;1797;51.844;7.684;2022-11-15T17:26:18;11.90;6.70
3566;DHT22;1797;51.844;7.684;2022-11-15T17:28:44;11.90;1.00
3566;DHT22;1797;51.844;7.684;2022-11-15T17:31:11;12.00;1.00
3566;DHT22;1797;51.844;7.684;2022-11-15T17:33:37;12.00;11.50
3566;DHT22;1797;51.844;7.684;2022-11-15T17:36:07;12.00;24.40
3566;DHT22;1797;51.844;7.684;2022-11-15T17:38:32;12.00;85.50
3566;DHT22;1797;51.844;7.684;2022-11-15T17:41:06;12.00;60.90
3566;DHT22;1797;51.844;7.684;2022-11-15T17:43:33;12.00;70.00
3566;DHT22;1797;51.844;7.684;2022-11-15T17:46:03;12.00;83.10
3566;DHT22;1797;51.844;7.684;2022-11-15T17:48:29;12.10;80.90
3566;DHT22;1797;51.844;7.684;2022-11-15T17:51:03;12.10;82.00
3566;DHT22;1797;51.844;7.684;2022-11-15T17:53:37;12.10;70.20
3566;DHT22;1797;51.844;7.684;2022-11-15T17:56:04;12.10;99.90
3566;DHT22;1797;51.844;7.684;2022-11-15T17:58:31;12.20;97.40
3566;DHT22;1797;51.844;7.684;2022-11-15T18:03:45;12.20;78.70
3566;DHT22;1797;51.844;7.684;2022-11-15T18:06:12;12.20;78.10
3566;DHT22;1797;51.844;7.684;2022-11-15T18:08:39;12.20;61.50
3566;DHT22;1797;51.844;7.684;2022-11-15T18:11:09;12.20;72.60
3566;DHT22;1797;51.844;7.684;2022-11-15T18:13:35;12.20;77.30
3566;DHT22;1797;51.844;7.684;2022-11-15T18:16:03;12.20;86.10
3566;DHT22;1797;51.844;7.684;2022-11-15T18:18:31;12.20;90.00
3566;DHT22;1797;51.844;7.684;2022-11-15T18:21:04;12.20;97.80
3566;DHT22;1797;51.844;7.684;2022-11-15T18:23:31;12.20;99.90
3566;DHT22;1797;51.844;7.684;2022-11-15T18:25:58;12.20;99.90
3566;DHT22;1797;51.844;7.684;2022-11-15T18:28:29;12.20;99.90
3566;DHT22;1797;51.844;7.684;2022-11-15T18:30:55;12.10;99.90
3566;DHT22;1797;51.844;7.684;2022-11-15T18:33:21;12.20;99.90
3566;DHT22;1797;51.844;7.684;2022-11-15T18:35:47;12.20;99.90
3566;DHT22;1797;51.844;7.684;2022-11-15T18:38:13;12.20;99.90
3566;DHT22;1797;51.844;7.684;2022-11-15T18:40:39;12.20;99.90
3566;DHT22;1797;51.844;7.684;2022-11-15T18:43:04;12.20;99.90
3566;DHT22;1797;51.844;7.684;2022-11-15T18:45:33;12.20;99.90
3566;DHT22;1797;51.844;7.684;2022-11-15T18:47:59;12.20;99.90